Time;durP1;ratioP1;P1;durP2;ratioP2;P2;SDS_P1;SDS_P2;PMS_P1;PMS_P2;Temp;Humidity;BMP_temperature;BMP_pressure;BME280_temperature;BME280_humidity;BME280_pressure;Samples;Min_cycle;Max_cycle;Signal;HPM_P1;HPM_P2
2023/12/21 00:02:27;;;;;;;3.03;1.10;;;;;;;;;;5051916;28;20032;-69
2023/12/21 00:05:12;;;;;;;6.28;0.90;;;;;;;;;;5043727;28;20028;-69
2023/12/21 00:07:58;;;;;;;3.08;1.02;;;;;;;;;;5036591;28;20439;-69
2023/12/21 00:10:44;;;;;;;3.15;1.40;;;;;;;;;;5037656;28;20390;-69
2023/12/21 00:13:29;;;;;;;7.00;1.73;;;;;;;;;;5051763;28;20112;-69
2023/12/21 00:16:16;;;;;;;5.55;1.75;;;;;;;;;;5053113;28;20104;-69
2023/12/21 00:19:02;;;;;;;5.65;2.00;;;;;;;;;;5052643;28;20025;-69
2023/12/21 00:21:48;;;;;;;2.72;1.50;;;;;;;;;;5053677;28;20030;-69
2023/12/21 00:24:33;;;;;;;6.45;1.42;;;;;;;;;;5052293;28;20119;-69
2023/12/21 00:27:19;;;;;;;6.55;2.00;;;;;;;;;;5053866;28;20074;-69
2023/12/21 00:30:05;;;;;;;4.43;1.85;;;;;;;;;;5054058;28;20029;-69
2023/12/21 00:32:52;;;;;;;4.40;1.77;;;;;;;;;;5052070;28;20025;-69
2023/12/21 00:35:38;;;;;;;5.72;2.03;;;;;;;;;;5052954;28;20044;-69
2023/12/21 00:38:24;;;;;;;5.45;1.63;;;;;;;;;;5051539;28;20021;-69
2023/12/21 00:41:09;;;;;;;8.00;2.45;;;;;;;;;;5053335;28;20120;-69
2023/12/21 00:43:55;;;;;;;5.47;1.83;;;;;;;;;;5052849;28;20028;-69
2023/12/21 00:46:41;;;;;;;6.03;2.15;;;;;;;;;;5052295;28;20397;-69
2023/12/21 00:49:26;;;;;;;5.60;2.58;;;;;;;;;;5053293;28;20017;-69
2023/12/21 00:52:12;;;;;;;4.32;1.67;;;;;;;;;;5053593;28;20021;-69
2023/12/21 00:54:57;;;;;;;8.82;1.60;;;;;;;;;;5052386;28;20099;-69
2023/12/21 00:57:43;;;;;;;7.57;1.70;;;;;;;;;;5053297;28;20025;-69
2023/12/21 01:00:29;;;;;;;8.10;2.03;;;;;;;;;;5053081;28;20474;-69
2023/12/21 01:03:15;;;;;;;6.25;2.97;;;;;;;;;;5053049;28;20029;-69
2023/12/21 01:06:00;;;;;;;4.25;1.92;;;;;;;;;;5052678;28;20029;-68
2023/12/21 01:08:46;;;;;;;10.00;2.33;;;;;;;;;;5051888;28;20024;-69
2023/12/21 01:11:31;;;;;;;10.90;2.42;;;;;;;;;;5052530;28;20025;-69
2023/12/21 01:14:17;;;;;;;7.80;2.00;;;;;;;;;;5051298;28;20029;-69
2023/12/21 01:17:03;;;;;;;8.25;2.58;;;;;;;;;;5052834;28;20521;-69
2023/12/21 01:19:49;;;;;;;8.45;2.40;;;;;;;;;;5052242;28;20037;-69
2023/12/21 01:22:34;;;;;;;6.00;2.13;;;;;;;;;;5052229;28;20032;-69
2023/12/21 01:25:20;;;;;;;6.13;2.20;;;;;;;;;;5052544;28;20048;-69
2023/12/21 01:28:06;;;;;;;8.82;2.00;;;;;;;;;;5052570;28;20023;-69
2023/12/21 01:30:51;;;;;;;9.63;2.00;;;;;;;;;;5052590;28;20024;-69
2023/12/21 01:33:37;;;;;;;9.95;2.28;;;;;;;;;;5051638;28;20079;-69
2023/12/21 01:36:23;;;;;;;7.70;2.50;;;;;;;;;;5051963;28;20040;-69
2023/12/21 01:39:08;;;;;;;7.05;1.98;;;;;;;;;;5051982;28;20024;-69
2023/12/21 01:41:54;;;;;;;2.53;1.35;;;;;;;;;;5104000;23;20079;-68
2023/12/21 01:44:40;;;;;;;6.05;2.08;;;;;;;;;;5052998;28;20113;-68
2023/12/21 01:47:26;;;;;;;4.72;1.95;;;;;;;;;;5052396;28;20025;-68
2023/12/21 01:50:14;;;;;;;6.35;1.77;;;;;;;;;;5051012;28;20055;-68
2023/12/21 01:53:00;;;;;;;4.95;1.63;;;;;;;;;;5030745;28;20029;-68
2023/12/21 01:55:46;;;;;;;2.30;1.33;;;;;;;;;;5028394;28;20113;-68
2023/12/21 01:58:32;;;;;;;4.20;1.40;;;;;;;;;;5025965;28;20108;-68
2023/12/21 02:01:19;;;;;;;4.03;1.88;;;;;;;;;;5022783;28;20034;-68
2023/12/21 02:04:05;;;;;;;4.10;1.25;;;;;;;;;;5011475;28;20026;-68
2023/12/21 02:06:51;;;;;;;4.32;1.73;;;;;;;;;;5033025;28;20100;-68
2023/12/21 02:09:36;;;;;;;4.93;2.00;;;;;;;;;;5033566;28;20032;-68
2023/12/21 02:12:22;;;;;;;5.15;2.10;;;;;;;;;;5032281;28;20037;-68
2023/12/21 02:15:08;;;;;;;4.50;1.58;;;;;;;;;;5032443;28;20037;-68
2023/12/21 02:17:54;;;;;;;5.22;1.60;;;;;;;;;;5033135;28;20052;-67
2023/12/21 02:20:41;;;;;;;2.53;1.40;;;;;;;;;;5029833;28;20022;-68
2023/12/21 02:23:28;;;;;;;8.43;1.92;;;;;;;;;;5016220;28;20543;-68
2023/12/21 02:26:14;;;;;;;3.38;1.92;;;;;;;;;;5014688;28;20036;-68
2023/12/21 02:29:00;;;;;;;4.82;1.77;;;;;;;;;;5026539;28;20049;-68
2023/12/21 02:31:45;;;;;;;5.85;1.67;;;;;;;;;;5030126;28;20075;-68
2023/12/21 02:34:31;;;;;;;5.15;1.90;;;;;;;;;;5015930;28;20022;-68
2023/12/21 02:37:18;;;;;;;4.05;1.88;;;;;;;;;;5016709;28;20026;-68
2023/12/21 02:40:04;;;;;;;6.53;1.90;;;;;;;;;;5015104;28;20105;-68
2023/12/21 02:42:50;;;;;;;6.20;1.95;;;;;;;;;;5015445;28;20116;-68
2023/12/21 02:45:36;;;;;;;3.90;2.15;;;;;;;;;;5017303;28;20026;-68
2023/12/21 02:48:21;;;;;;;6.43;2.38;;;;;;;;;;5034466;28;20486;-68
2023/12/21 02:51:07;;;;;;;8.20;2.30;;;;;;;;;;5035276;28;20033;-68
2023/12/21 02:53:52;;;;;;;9.57;3.13;;;;;;;;;;5036132;28;20501;-68
2023/12/21 02:56:38;;;;;;;5.25;1.67;;;;;;;;;;5034945;28;20406;-68
2023/12/21 02:59:24;;;;;;;4.90;1.40;;;;;;;;;;5016213;28;20030;-68
2023/12/21 03:02:09;;;;;;;2.70;1.13;;;;;;;;;;5015880;28;20061;-68
2023/12/21 03:04:55;;;;;;;5.63;1.23;;;;;;;;;;5030649;28;20028;-68
2023/12/21 03:07:40;;;;;;;2.05;1.15;;;;;;;;;;5035056;28;20025;-68
2023/12/21 03:10:26;;;;;;;7.13;1.65;;;;;;;;;;5034996;28;20088;-68
2023/12/21 03:13:12;;;;;;;5.97;1.40;;;;;;;;;;5034306;28;20021;-68
2023/12/21 03:15:57;;;;;;;7.38;1.83;;;;;;;;;;5034500;28;20108;-68
2023/12/21 03:18:44;;;;;;;11.00;2.60;;;;;;;;;;5034442;28;20030;-68
2023/12/21 03:21:30;;;;;;;7.43;1.95;;;;;;;;;;5035661;28;20029;-68
2023/12/21 03:24:16;;;;;;;22.77;3.13;;;;;;;;;;5034778;28;20018;-68
2023/12/21 03:27:02;;;;;;;14.75;3.33;;;;;;;;;;5033006;28;20560;-68
2023/12/21 03:29:48;;;;;;;19.38;2.88;;;;;;;;;;5015044;28;20034;-68
2023/12/21 03:32:33;;;;;;;19.05;3.65;;;;;;;;;;5014970;28;20171;-68
2023/12/21 03:35:19;;;;;;;25.67;4.32;;;;;;;;;;5016586;28;20506;-68
2023/12/21 03:38:04;;;;;;;21.85;3.33;;;;;;;;;;5027606;28;20026;-68
2023/12/21 03:40:50;;;;;;;27.60;3.30;;;;;;;;;;5014644;28;20058;-68
2023/12/21 03:43:36;;;;;;;32.83;4.13;;;;;;;;;;5027500;28;20052;-68
2023/12/21 03:46:22;;;;;;;24.58;3.75;;;;;;;;;;5034406;28;20034;-68
2023/12/21 03:49:07;;;;;;;15.48;3.47;;;;;;;;;;5023837;28;20502;-68
2023/12/21 03:51:53;;;;;;;20.95;2.85;;;;;;;;;;5013395;28;20084;-68
2023/12/21 03:54:38;;;;;;;15.85;3.35;;;;;;;;;;5017810;28;20018;-68
2023/12/21 03:57:24;;;;;;;29.70;4.45;;;;;;;;;;5014361;28;20566;-68
2023/12/21 04:00:10;;;;;;;27.02;3.80;;;;;;;;;;5020224;28;20555;-68
2023/12/21 04:02:56;;;;;;;20.00;3.95;;;;;;;;;;5034024;28;20053;-68
2023/12/21 04:05:41;;;;;;;24.02;4.10;;;;;;;;;;5034460;28;20026;-68
2023/12/21 04:08:27;;;;;;;23.80;3.97;;;;;;;;;;5034195;28;20410;-68
2023/12/21 04:11:13;;;;;;;13.43;2.78;;;;;;;;;;5033218;28;20021;-69
2023/12/21 04:13:59;;;;;;;30.92;4.28;;;;;;;;;;5032820;28;20029;-68
2023/12/21 04:16:44;;;;;;;14.95;2.85;;;;;;;;;;5033875;28;20044;-68
2023/12/21 04:19:30;;;;;;;18.70;4.50;;;;;;;;;;5034710;28;20025;-68
2023/12/21 04:22:16;;;;;;;24.77;4.28;;;;;;;;;;5019001;28;20064;-68
2023/12/21 04:25:01;;;;;;;19.23;4.28;;;;;;;;;;5034343;28;20021;-68
2023/12/21 04:27:47;;;;;;;15.40;3.47;;;;;;;;;;5032467;28;20140;-68
2023/12/21 04:30:33;;;;;;;29.30;4.22;;;;;;;;;;5033141;28;20128;-68
2023/12/21 04:33:18;;;;;;;35.15;4.65;;;;;;;;;;5027347;28;20030;-68
2023/12/21 04:36:04;;;;;;;31.48;4.00;;;;;;;;;;5033310;28;20025;-68
2023/12/21 04:38:50;;;;;;;26.83;4.03;;;;;;;;;;5023535;28;20399;-68
2023/12/21 04:41:36;;;;;;;28.25;5.32;;;;;;;;;;5025388;28;20035;-68
2023/12/21 04:44:21;;;;;;;22.80;3.75;;;;;;;;;;5021068;28;20465;-68
2023/12/21 04:47:10;;;;;;;19.95;4.38;;;;;;;;;;5033092;28;20028;-68
2023/12/21 04:49:56;;;;;;;23.63;3.90;;;;;;;;;;5013418;28;20030;-68
2023/12/21 04:52:42;;;;;;;35.15;4.38;;;;;;;;;;5013768;28;20022;-68
2023/12/21 04:55:27;;;;;;;26.83;4.60;;;;;;;;;;5034234;28;20116;-68
2023/12/21 04:58:13;;;;;;;22.83;3.13;;;;;;;;;;5032956;28;20546;-68
2023/12/21 05:00:59;;;;;;;20.25;4.05;;;;;;;;;;5033270;28;20517;-68
2023/12/21 05:03:44;;;;;;;33.00;4.38;;;;;;;;;;5031854;28;20026;-68
2023/12/21 05:06:30;;;;;;;24.58;6.13;;;;;;;;;;5033059;28;20021;-68
2023/12/21 05:09:15;;;;;;;22.13;3.80;;;;;;;;;;5032666;28;20018;-68
2023/12/21 05:12:02;;;;;;;19.52;3.08;;;;;;;;;;5033460;28;20553;-68
2023/12/21 05:14:47;;;;;;;21.83;3.80;;;;;;;;;;5031943;28;20025;-68
2023/12/21 05:17:34;;;;;;;18.33;4.30;;;;;;;;;;5032111;28;20503;-68
2023/12/21 05:20:20;;;;;;;17.13;4.78;;;;;;;;;;5032849;28;20402;-68
2023/12/21 05:22:50;;;;;;;32.33;5.57;;;;;;;;;;5059325;23;20045;-68
2023/12/21 05:25:36;;;;;;;26.77;4.95;;;;;;;;;;5033702;28;20076;-68
2023/12/21 05:28:22;;;;;;;23.85;4.75;;;;;;;;;;5031799;28;20021;-68
2023/12/21 05:31:08;;;;;;;29.00;5.00;;;;;;;;;;5051627;28;20024;-68
2023/12/21 05:33:54;;;;;;;22.50;3.45;;;;;;;;;;5050228;28;20086;-68
2023/12/21 05:36:40;;;;;;;15.23;3.50;;;;;;;;;;5033166;28;20049;-68
2023/12/21 05:39:26;;;;;;;19.42;4.43;;;;;;;;;;5031292;28;20076;-68
2023/12/21 05:42:11;;;;;;;26.58;3.90;;;;;;;;;;5040097;28;20024;-68
2023/12/21 05:44:57;;;;;;;27.17;4.43;;;;;;;;;;5051987;28;20111;-68
2023/12/21 05:47:43;;;;;;;27.27;3.83;;;;;;;;;;5042514;28;20024;-68
2023/12/21 05:50:28;;;;;;;23.48;4.70;;;;;;;;;;5031729;28;20083;-68
2023/12/21 05:53:14;;;;;;;19.45;3.13;;;;;;;;;;5031755;28;20056;-68
2023/12/21 05:56:00;;;;;;;16.02;3.20;;;;;;;;;;5048540;28;20032;-68
2023/12/21 05:58:45;;;;;;;12.85;2.60;;;;;;;;;;5049157;28;20021;-68
2023/12/21 06:01:32;;;;;;;9.45;2.78;;;;;;;;;;5039095;28;20418;-68
2023/12/21 06:04:18;;;;;;;18.45;3.13;;;;;;;;;;5050219;28;20079;-68
2023/12/21 06:07:04;;;;;;;7.95;2.33;;;;;;;;;;5045246;28;20017;-68
2023/12/21 06:09:50;;;;;;;16.35;4.65;;;;;;;;;;5031690;28;20087;-68
2023/12/21 06:12:35;;;;;;;12.45;3.03;;;;;;;;;;5030150;28;20041;-68
2023/12/21 06:15:21;;;;;;;22.00;4.00;;;;;;;;;;5052096;28;20025;-68
2023/12/21 06:18:09;;;;;;;9.68;3.00;;;;;;;;;;5050924;28;20033;-68
2023/12/21 06:20:54;;;;;;;11.65;3.00;;;;;;;;;;5038270;28;20040;-68
2023/12/21 06:23:40;;;;;;;16.67;3.67;;;;;;;;;;5050644;28;20394;-68
2023/12/21 06:26:26;;;;;;;15.35;3.50;;;;;;;;;;5048847;28;20071;-68
2023/12/21 06:29:11;;;;;;;14.88;4.97;;;;;;;;;;5050978;28;20020;-68
2023/12/21 06:31:57;;;;;;;14.65;3.85;;;;;;;;;;5050894;28;20025;-68
2023/12/21 06:34:43;;;;;;;11.93;3.03;;;;;;;;;;5050500;28;20482;-68
2023/12/21 06:37:28;;;;;;;15.02;3.20;;;;;;;;;;5049828;28;20104;-68
2023/12/21 06:40:14;;;;;;;15.25;3.65;;;;;;;;;;5049227;28;20029;-68
2023/12/21 06:42:59;;;;;;;8.25;3.10;;;;;;;;;;5050815;28;20024;-68
2023/12/21 06:45:47;;;;;;;15.15;2.75;;;;;;;;;;5051467;28;20021;-69
2023/12/21 06:48:33;;;;;;;13.65;3.17;;;;;;;;;;5049108;28;20060;-68
2023/12/21 06:51:18;;;;;;;24.92;5.57;;;;;;;;;;5049233;28;20021;-68
2023/12/21 06:54:05;;;;;;;14.88;3.65;;;;;;;;;;5050222;28;20025;-68
2023/12/21 06:56:51;;;;;;;18.60;3.42;;;;;;;;;;5050420;28;20079;-69
2023/12/21 06:59:37;;;;;;;12.20;3.40;;;;;;;;;;5051106;28;20547;-68
2023/12/21 07:02:22;;;;;;;25.20;3.28;;;;;;;;;;5049831;28;20020;-68
2023/12/21 07:05:08;;;;;;;11.38;3.05;;;;;;;;;;5054026;28;20028;-68
2023/12/21 07:07:54;;;;;;;9.80;3.80;;;;;;;;;;5054127;28;20017;-68
2023/12/21 07:10:39;;;;;;;9.57;2.63;;;;;;;;;;5054011;28;20021;-68
2023/12/21 07:13:25;;;;;;;13.80;3.00;;;;;;;;;;5054299;28;20025;-68
2023/12/21 07:16:11;;;;;;;19.50;3.22;;;;;;;;;;5053452;28;20025;-68
2023/12/21 07:18:56;;;;;;;11.68;3.70;;;;;;;;;;5054154;28;20021;-68
2023/12/21 07:21:42;;;;;;;18.42;2.90;;;;;;;;;;5022254;23;1100857;-68
2023/12/21 07:24:28;;;;;;;17.15;3.30;;;;;;;;;;5053651;28;20059;-68
2023/12/21 07:27:15;;;;;;;23.65;3.38;;;;;;;;;;5053951;28;20041;-68
2023/12/21 07:30:01;;;;;;;31.25;4.03;;;;;;;;;;5054718;28;20017;-68
2023/12/21 07:32:46;;;;;;;14.85;3.63;;;;;;;;;;5034811;28;20506;-68
2023/12/21 07:35:32;;;;;;;33.50;4.00;;;;;;;;;;5035031;28;20029;-68
2023/12/21 07:38:17;;;;;;;47.97;5.80;;;;;;;;;;5034579;28;20021;-68
2023/12/21 07:41:03;;;;;;;37.38;4.40;;;;;;;;;;5034605;28;20067;-68
2023/12/21 07:43:49;;;;;;;24.05;5.38;;;;;;;;;;5034755;28;20037;-68
2023/12/21 07:46:34;;;;;;;35.70;4.75;;;;;;;;;;5034115;28;20022;-68
2023/12/21 07:49:20;;;;;;;26.05;4.93;;;;;;;;;;5033758;28;20067;-69
2023/12/21 07:52:06;;;;;;;23.33;4.88;;;;;;;;;;5034301;28;20108;-68
2023/12/21 07:54:52;;;;;;;21.65;4.35;;;;;;;;;;5030700;28;20027;-68
2023/12/21 07:57:37;;;;;;;25.70;4.13;;;;;;;;;;5031982;28;20041;-68
2023/12/21 08:00:23;;;;;;;28.02;4.57;;;;;;;;;;5015213;28;20100;-68
2023/12/21 08:03:09;;;;;;;28.65;4.45;;;;;;;;;;5026866;28;20021;-68
2023/12/21 08:05:55;;;;;;;32.88;4.55;;;;;;;;;;5018270;28;20018;-68
2023/12/21 08:08:41;;;;;;;22.98;3.47;;;;;;;;;;5014571;28;20105;-69
2023/12/21 08:11:26;;;;;;;16.08;3.42;;;;;;;;;;5030748;28;20066;-69
2023/12/21 08:14:13;;;;;;;34.20;5.22;;;;;;;;;;5033851;28;20113;-68
2023/12/21 08:17:01;;;;;;;30.05;4.47;;;;;;;;;;5028515;28;20044;-68
2023/12/21 08:19:46;;;;;;;27.27;4.85;;;;;;;;;;5027724;28;20028;-68
2023/12/21 08:22:33;;;;;;;18.88;4.93;;;;;;;;;;5012779;28;20034;-68
2023/12/21 08:25:20;;;;;;;20.30;4.03;;;;;;;;;;5015095;28;20030;-68
2023/12/21 08:28:05;;;;;;;38.30;5.07;;;;;;;;;;5033291;28;20017;-69
2023/12/21 08:30:51;;;;;;;22.55;3.67;;;;;;;;;;5032582;28;20056;-69
2023/12/21 08:33:36;;;;;;;27.73;4.85;;;;;;;;;;5033066;28;20026;-69
2023/12/21 08:36:22;;;;;;;17.85;3.70;;;;;;;;;;5033817;28;20021;-69
2023/12/21 08:39:08;;;;;;;23.55;4.60;;;;;;;;;;5033481;28;20057;-69
2023/12/21 08:41:53;;;;;;;15.57;3.88;;;;;;;;;;5034051;28;20506;-69
2023/12/21 08:44:40;;;;;;;17.42;6.30;;;;;;;;;;5032792;28;20029;-69
2023/12/21 08:47:27;;;;;;;16.30;2.70;;;;;;;;;;5033223;28;20026;-69
2023/12/21 08:50:12;;;;;;;30.98;4.38;;;;;;;;;;5033539;28;20029;-69
2023/12/21 08:53:02;;;;;;;18.67;3.90;;;;;;;;;;5033274;28;20037;-69
2023/12/21 08:55:48;;;;;;;24.35;3.47;;;;;;;;;;5032242;28;20104;-68
2023/12/21 08:58:35;;;;;;;21.25;5.22;;;;;;;;;;5029702;28;20032;-69
2023/12/21 09:01:21;;;;;;;13.82;3.22;;;;;;;;;;5035044;28;20037;-69
2023/12/21 09:04:07;;;;;;;20.00;4.38;;;;;;;;;;5015829;28;20026;-68
2023/12/21 09:06:52;;;;;;;19.15;4.07;;;;;;;;;;5022256;28;20445;-68
2023/12/21 09:09:38;;;;;;;21.55;3.42;;;;;;;;;;5033252;28;20032;-68
2023/12/21 09:12:24;;;;;;;23.00;3.78;;;;;;;;;;5029387;28;20014;-68
2023/12/21 09:15:09;;;;;;;17.85;3.72;;;;;;;;;;5026708;28;20403;-68
2023/12/21 09:17:55;;;;;;;17.27;3.75;;;;;;;;;;5031808;28;20511;-68
2023/12/21 09:20:41;;;;;;;21.95;5.03;;;;;;;;;;5031930;28;20401;-68
2023/12/21 09:23:26;;;;;;;28.35;5.68;;;;;;;;;;5032387;28;20021;-68
2023/12/21 09:26:12;;;;;;;19.27;3.78;;;;;;;;;;5016671;28;20107;-68
2023/12/21 09:28:57;;;;;;;32.78;5.45;;;;;;;;;;5013824;28;20041;-68
2023/12/21 09:31:43;;;;;;;27.52;4.80;;;;;;;;;;5027170;28;20773;-68
2023/12/21 09:34:29;;;;;;;24.20;4.95;;;;;;;;;;5032008;28;20032;-68
2023/12/21 09:37:15;;;;;;;29.13;4.63;;;;;;;;;;5032319;28;20022;-68
2023/12/21 09:40:00;;;;;;;44.90;5.95;;;;;;;;;;5031846;28;20017;-68
2023/12/21 09:42:49;;;;;;;27.40;4.63;;;;;;;;;;5030524;28;20032;-68
2023/12/21 09:45:36;;;;;;;25.50;4.53;;;;;;;;;;5029760;28;20028;-69
2023/12/21 09:48:25;;;;;;;32.25;4.97;;;;;;;;;;5032419;28;20490;-68
2023/12/21 09:51:13;;;;;;;30.83;7.32;;;;;;;;;;5032352;28;20051;-68
2023/12/21 09:54:00;;;;;;;35.40;4.25;;;;;;;;;;5029466;28;20026;-68
2023/12/21 09:56:46;;;;;;;40.97;6.15;;;;;;;;;;5029161;28;20041;-68
2023/12/21 09:59:33;;;;;;;25.63;4.65;;;;;;;;;;5032866;28;20025;-68
2023/12/21 10:02:20;;;;;;;32.72;6.13;;;;;;;;;;5028349;28;20014;-68
2023/12/21 10:05:06;;;;;;;26.75;4.22;;;;;;;;;;5032967;28;20030;-67
2023/12/21 10:07:51;;;;;;;26.52;6.15;;;;;;;;;;5031734;28;20379;-67
2023/12/21 10:10:37;;;;;;;27.13;5.45;;;;;;;;;;5015649;28;20029;-68
2023/12/21 10:13:25;;;;;;;20.08;4.60;;;;;;;;;;5012753;28;20022;-68
2023/12/21 10:16:12;;;;;;;28.25;5.03;;;;;;;;;;5012293;28;20025;-68
2023/12/21 10:18:57;;;;;;;31.92;4.32;;;;;;;;;;5015876;28;20052;-68
2023/12/21 10:21:43;;;;;;;27.33;4.03;;;;;;;;;;5030603;28;20036;-68
2023/12/21 10:24:31;;;;;;;21.90;3.85;;;;;;;;;;5032203;28;20021;-68
2023/12/21 10:27:18;;;;;;;23.33;3.55;;;;;;;;;;5030764;28;20031;-68
2023/12/21 10:30:04;;;;;;;14.90;3.50;;;;;;;;;;5031497;28;20057;-68
2023/12/21 10:32:55;;;;;;;18.13;3.28;;;;;;;;;;5030085;28;20044;-67
2023/12/21 10:35:40;;;;;;;;;;;;;;;;;;5033149;28;20021;-68
2023/12/21 10:38:27;;;;;;;16.77;3.15;;;;;;;;;;5024698;28;19924;-68
2023/12/21 10:41:12;;;;;;;15.38;3.47;;;;;;;;;;5014448;28;20029;-68
2023/12/21 10:43:59;;;;;;;9.30;2.88;;;;;;;;;;5015605;28;20080;-68
2023/12/21 10:46:45;;;;;;;8.15;1.55;;;;;;;;;;5016077;28;20100;-68
2023/12/21 10:49:31;;;;;;;11.82;2.25;;;;;;;;;;5017568;28;20379;-68
2023/12/21 10:52:18;;;;;;;10.50;1.58;;;;;;;;;;5026425;28;20029;-68
2023/12/21 10:55:04;;;;;;;10.60;2.17;;;;;;;;;;5036006;28;20029;-68
2023/12/21 10:57:51;;;;;;;6.03;1.77;;;;;;;;;;5034974;28;20021;-68
2023/12/21 11:00:37;;;;;;;6.65;2.30;;;;;;;;;;5034650;28;20030;-68
2023/12/21 11:03:24;;;;;;;7.57;1.58;;;;;;;;;;5034678;28;20018;-68
2023/12/21 11:06:09;;;;;;;4.50;1.55;;;;;;;;;;5031815;28;20029;-68
2023/12/21 11:08:55;;;;;;;8.70;2.95;;;;;;;;;;5014841;28;20100;-68
2023/12/21 11:11:41;;;;;;;16.63;3.65;;;;;;;;;;5014772;28;20030;-68
2023/12/21 11:14:26;;;;;;;8.57;1.65;;;;;;;;;;5015666;28;20395;-68
2023/12/21 11:17:12;;;;;;;9.55;2.10;;;;;;;;;;5013592;28;20026;-68
2023/12/21 11:19:58;;;;;;;8.32;1.90;;;;;;;;;;5025513;28;20030;-68
2023/12/21 11:22:45;;;;;;;4.95;1.48;;;;;;;;;;5027074;28;20052;-67
2023/12/21 11:25:31;;;;;;;6.38;1.88;;;;;;;;;;5014412;28;20022;-67
2023/12/21 11:28:24;;;;;;;10.77;2.17;;;;;;;;;;5015334;28;20387;-68
2023/12/21 11:31:15;;;;;;;8.50;2.08;;;;;;;;;;5015140;28;20056;-67
2023/12/21 11:34:15;;;;;;;20.38;3.17;;;;;;;;;;5031023;28;20052;-68
2023/12/21 11:37:23;;;;;;;20.73;4.00;;;;;;;;;;5016010;28;20032;-67
2023/12/21 11:40:11;;;;;;;19.77;4.25;;;;;;;;;;5000475;28;20022;-67
2023/12/21 11:42:57;;;;;;;22.05;3.95;;;;;;;;;;5016264;28;20026;-67
2023/12/21 11:45:47;;;;;;;18.23;3.47;;;;;;;;;;5015763;28;20499;-68
2023/12/21 11:48:33;;;;;;;18.40;3.50;;;;;;;;;;5019856;28;20034;-67
2023/12/21 11:51:19;;;;;;;32.33;4.78;;;;;;;;;;5026511;28;20105;-68
2023/12/21 11:54:05;;;;;;;34.15;5.15;;;;;;;;;;5014950;28;20036;-68
2023/12/21 11:56:53;;;;;;;43.78;4.72;;;;;;;;;;5031202;28;20109;-67
2023/12/21 11:59:38;;;;;;;26.88;4.97;;;;;;;;;;5029640;28;20072;-67
2023/12/21 12:02:25;;;;;;;18.23;3.17;;;;;;;;;;5027249;28;20048;-68
2023/12/21 12:05:22;;;;;;;29.63;7.43;;;;;;;;;;5026597;28;20059;-68
2023/12/21 12:08:07;;;;;;;29.52;4.40;;;;;;;;;;5021860;28;20057;-68
2023/12/21 12:10:54;;;;;;;25.77;4.82;;;;;;;;;;5014918;28;20411;-68
2023/12/21 12:13:40;;;;;;;30.60;4.07;;;;;;;;;;5014024;28;20022;-68
2023/12/21 12:16:25;;;;;;;19.25;3.72;;;;;;;;;;5014909;28;20167;-67
2023/12/21 12:19:12;;;;;;;27.73;4.35;;;;;;;;;;5016700;28;20486;-67
2023/12/21 12:21:58;;;;;;;15.75;2.85;;;;;;;;;;5034372;28;20052;-67
2023/12/21 12:24:45;;;;;;;21.88;3.33;;;;;;;;;;5033857;28;20029;-68
2023/12/21 12:27:30;;;;;;;13.95;3.15;;;;;;;;;;5030084;28;20422;-67
2023/12/21 12:30:17;;;;;;;16.52;2.88;;;;;;;;;;5013165;28;20032;-68
2023/12/21 12:33:04;;;;;;;13.38;2.95;;;;;;;;;;5013235;28;20029;-67
2023/12/21 12:35:50;;;;;;;16.95;3.22;;;;;;;;;;5012888;28;20478;-67
2023/12/21 12:38:35;;;;;;;15.45;4.05;;;;;;;;;;5014204;28;20022;-68
2023/12/21 12:41:23;;;;;;;16.92;2.83;;;;;;;;;;5014267;28;20491;-67
2023/12/21 12:44:09;;;;;;;10.43;2.58;;;;;;;;;;5000492;28;20029;-67
2023/12/21 12:46:55;;;;;;;26.08;3.05;;;;;;;;;;5014689;28;20029;-67
2023/12/21 12:49:41;;;;;;;13.13;2.70;;;;;;;;;;5015115;28;20062;-68
2023/12/21 12:52:27;;;;;;;26.45;4.50;;;;;;;;;;5012494;28;20021;-68
2023/12/21 12:55:14;;;;;;;18.60;4.85;;;;;;;;;;5014502;28;20036;-67
2023/12/21 12:58:03;;;;;;;18.38;4.45;;;;;;;;;;5020287;28;20026;-67
2023/12/21 13:00:48;;;;;;;21.42;3.65;;;;;;;;;;5033203;28;20594;-67
2023/12/21 13:03:35;;;;;;;20.67;3.55;;;;;;;;;;5031892;28;20025;-67
2023/12/21 13:06:23;;;;;;;35.40;5.18;;;;;;;;;;5033742;28;20026;-68
2023/12/21 13:09:09;;;;;;;34.13;6.35;;;;;;;;;;5031535;28;20013;-68
2023/12/21 13:11:54;;;;;;;25.50;5.18;;;;;;;;;;5030345;28;20037;-67
2023/12/21 13:14:42;;;;;;;25.92;7.38;;;;;;;;;;5031626;28;20025;-67
2023/12/21 13:17:30;;;;;;;31.90;6.20;;;;;;;;;;5030315;28;20026;-68
2023/12/21 13:20:15;;;;;;;33.58;5.30;;;;;;;;;;5013210;28;20056;-68
2023/12/21 13:22:52;;;;;;;13.60;4.05;;;;;;;;;;5060219;22;20052;-68
2023/12/21 13:25:38;;;;;;;36.00;4.82;;;;;;;;;;5053485;28;20033;-68
2023/12/21 13:28:23;;;;;;;19.80;4.70;;;;;;;;;;5048203;28;20028;-68
2023/12/21 13:31:10;;;;;;;30.90;5.68;;;;;;;;;;5051546;28;20509;-68
2023/12/21 13:33:56;;;;;;;27.33;5.13;;;;;;;;;;5045269;28;20029;-68
2023/12/21 13:36:42;;;;;;;37.15;7.53;;;;;;;;;;5050310;28;20556;-68
2023/12/21 13:39:28;;;;;;;37.72;6.22;;;;;;;;;;5036429;28;20032;-68
2023/12/21 13:42:13;;;;;;;36.55;5.97;;;;;;;;;;5048906;22;20372;-68
2023/12/21 13:44:59;;;;;;;10.98;2.70;;;;;;;;;;5051897;28;20498;-69
2023/12/21 13:47:45;;;;;;;7.93;3.53;;;;;;;;;;5051126;28;20033;-69
2023/12/21 13:50:31;;;;;;;18.88;4.22;;;;;;;;;;5050491;28;20440;-69
2023/12/21 13:53:16;;;;;;;18.17;2.80;;;;;;;;;;5052161;28;20028;-69
2023/12/21 13:56:02;;;;;;;10.57;3.03;;;;;;;;;;5050736;28;20032;-69
2023/12/21 13:58:48;;;;;;;18.15;3.25;;;;;;;;;;5036117;28;20055;-69
2023/12/21 14:01:34;;;;;;;33.70;4.68;;;;;;;;;;5052019;28;20070;-69
2023/12/21 14:04:19;;;;;;;23.58;5.63;;;;;;;;;;5050444;28;20398;-69
2023/12/21 14:07:05;;;;;;;14.52;4.85;;;;;;;;;;5051994;28;20029;-69
2023/12/21 14:09:51;;;;;;;19.35;3.60;;;;;;;;;;5051501;28;20478;-69
2023/12/21 14:12:37;;;;;;;20.60;3.92;;;;;;;;;;5051120;28;20458;-69
2023/12/21 14:15:22;;;;;;;20.67;4.88;;;;;;;;;;5051574;28;20103;-69
2023/12/21 14:18:08;;;;;;;29.02;5.70;;;;;;;;;;5052436;28;20025;-69
2023/12/21 14:20:54;;;;;;;25.50;4.30;;;;;;;;;;5050482;28;20021;-69
2023/12/21 14:23:40;;;;;;;23.90;4.55;;;;;;;;;;5050588;28;20479;-69
2023/12/21 14:26:25;;;;;;;42.13;9.20;;;;;;;;;;5051882;28;20423;-69
2023/12/21 14:29:11;;;;;;;26.15;6.18;;;;;;;;;;5051830;28;20094;-69
2023/12/21 14:31:56;;;;;;;19.25;4.78;;;;;;;;;;5051456;28;20021;-69
2023/12/21 14:34:42;;;;;;;27.05;4.55;;;;;;;;;;5051870;28;20017;-69
2023/12/21 14:37:28;;;;;;;29.13;6.05;;;;;;;;;;5051314;28;20071;-69
2023/12/21 14:40:14;;;;;;;24.38;4.43;;;;;;;;;;5049626;28;20017;-69
2023/12/21 14:43:00;;;;;;;24.48;5.00;;;;;;;;;;5050287;28;20032;-69
2023/12/21 14:45:47;;;;;;;32.75;6.50;;;;;;;;;;5049866;28;20025;-69
2023/12/21 14:48:32;;;;;;;31.88;5.93;;;;;;;;;;5051152;28;20374;-69
2023/12/21 14:51:20;;;;;;;30.15;5.80;;;;;;;;;;5051433;28;20021;-69
2023/12/21 14:54:07;;;;;;;29.95;5.63;;;;;;;;;;5050416;28;20108;-69
2023/12/21 14:56:52;;;;;;;31.73;6.07;;;;;;;;;;5051717;28;20032;-69
2023/12/21 14:59:38;;;;;;;36.72;5.32;;;;;;;;;;5051394;28;20033;-69
2023/12/21 15:02:24;;;;;;;32.65;4.70;;;;;;;;;;5049655;28;20510;-69
2023/12/21 15:05:10;;;;;;;27.95;7.28;;;;;;;;;;5048905;28;20036;-69
2023/12/21 15:07:55;;;;;;;29.90;6.45;;;;;;;;;;5050675;28;20021;-69
2023/12/21 15:10:41;;;;;;;37.00;6.55;;;;;;;;;;5051548;28;20025;-69
2023/12/21 15:13:27;;;;;;;28.95;4.80;;;;;;;;;;5049436;28;20029;-69
2023/12/21 15:16:12;;;;;;;25.85;5.90;;;;;;;;;;5051084;28;20017;-69
2023/12/21 15:18:58;;;;;;;38.10;5.97;;;;;;;;;;5050380;28;20048;-69
2023/12/21 15:21:43;;;;;;;19.40;5.55;;;;;;;;;;5049317;28;20025;-69
2023/12/21 15:24:29;;;;;;;41.17;8.93;;;;;;;;;;5051397;28;20025;-69
2023/12/21 15:27:15;;;;;;;31.27;5.30;;;;;;;;;;5053486;28;20071;-69
2023/12/21 15:30:01;;;;;;;34.30;5.03;;;;;;;;;;5054984;28;20020;-69
2023/12/21 15:32:47;;;;;;;25.88;10.38;;;;;;;;;;5052490;28;20096;-69
2023/12/21 15:35:33;;;;;;;29.50;8.15;;;;;;;;;;5055228;28;20032;-69
2023/12/21 15:38:18;;;;;;;37.78;6.45;;;;;;;;;;5053037;28;20032;-69
2023/12/21 15:41:04;;;;;;;41.08;7.90;;;;;;;;;;5054711;28;20027;-69
2023/12/21 15:43:50;;;;;;;28.23;6.43;;;;;;;;;;5054002;28;20029;-69
2023/12/21 15:46:36;;;;;;;43.22;9.65;;;;;;;;;;5054309;28;20021;-70
2023/12/21 15:49:22;;;;;;;38.42;7.97;;;;;;;;;;5054273;28;20056;-69
2023/12/21 15:52:07;;;;;;;28.88;5.75;;;;;;;;;;5053316;28;20048;-69
2023/12/21 15:54:55;;;;;;;22.13;4.93;;;;;;;;;;5054262;28;20036;-69
2023/12/21 15:57:40;;;;;;;22.63;4.18;;;;;;;;;;5053370;28;20115;-69
2023/12/21 16:00:26;;;;;;;34.92;5.13;;;;;;;;;;5053874;28;20025;-69
2023/12/21 16:03:11;;;;;;;24.90;4.63;;;;;;;;;;5054009;28;20116;-70
2023/12/21 16:05:57;;;;;;;17.35;5.38;;;;;;;;;;5054160;28;20120;-69
2023/12/21 16:08:43;;;;;;;25.05;4.95;;;;;;;;;;5054433;28;20025;-69
2023/12/21 16:11:28;;;;;;;22.13;4.05;;;;;;;;;;5053602;28;20490;-69
2023/12/21 16:14:14;;;;;;;12.20;3.50;;;;;;;;;;5052835;28;20035;-69
2023/12/21 16:17:00;;;;;;;16.02;3.63;;;;;;;;;;5054357;28;20508;-69
2023/12/21 16:19:47;;;;;;;10.50;4.40;;;;;;;;;;5054320;28;20029;-69
2023/12/21 16:22:32;;;;;;;32.33;5.13;;;;;;;;;;5053908;28;20037;-69
2023/12/21 16:25:18;;;;;;;23.25;4.75;;;;;;;;;;5053610;28;20074;-68